Terminal Aerodrome Forecast
Issued by NWS

Home | Current Version | Previous Version | Graphics & Text | Print | Product List | Glossary On
Versions: 1 2 3 4 5 6 7 8 9 10 11 12 13 14 15 16 17 18 19 20 21 22
016
FTUS43 KDLH 141926 AAA
TAFBRD
TAF AMD
KBRD 141926Z 1419/1518 16010KT 3SM -SN OVC035
      TEMPO 1419/1422 2SM -SN OVC020
     FM142200 17011KT 2SM -SN OVC020
     FM150100 18009KT 4SM -SN OVC020
     FM150800 19010KT P6SM VCSH OVC025
     FM151400 23007KT P6SM OVC030=

USA.gov is the U.S. government's official web portal to all federal, state and local government web resources and services.